createdAt,value
2024-05-09T00:02:04.036Z,10.60
2024-05-09T00:04:34.385Z,10.60
2024-05-09T00:07:04.815Z,10.50
2024-05-09T00:09:37.796Z,10.50
2024-05-09T00:12:08.540Z,10.50
2024-05-09T00:14:39.074Z,10.40
2024-05-09T00:17:10.607Z,10.40
2024-05-09T00:19:40.994Z,10.40
2024-05-09T00:22:11.278Z,10.40
2024-05-09T00:24:44.236Z,10.30
2024-05-09T00:27:14.481Z,10.30
2024-05-09T00:29:44.771Z,10.30
2024-05-09T00:32:15.201Z,10.20
2024-05-09T00:34:45.533Z,10.20
2024-05-09T00:37:16.395Z,10.20
2024-05-09T00:39:49.261Z,10.20
2024-05-09T00:42:19.535Z,10.10
2024-05-09T00:44:49.786Z,10.10
2024-05-09T00:47:21.230Z,10.10
2024-05-09T00:49:52.210Z,10.00
2024-05-09T00:52:22.834Z,10.00
2024-05-09T00:54:56.926Z,10.00
2024-05-09T00:57:28.221Z,9.90
2024-05-09T00:59:59.258Z,9.90
2024-05-09T01:02:29.887Z,9.90
2024-05-09T01:05:00.542Z,9.90
2024-05-09T01:07:31.358Z,9.90
2024-05-09T01:10:07.033Z,9.80
2024-05-09T01:12:39.312Z,9.80
2024-05-09T01:15:10.065Z,9.80
2024-05-09T01:17:40.871Z,9.80
2024-05-09T01:20:19.798Z,9.80
2024-05-09T01:22:55.321Z,9.80
2024-05-09T01:25:28.566Z,9.80
2024-05-09T01:27:58.912Z,9.70
2024-05-09T01:30:34.675Z,9.70
2024-05-09T01:33:09.458Z,9.70
2024-05-09T01:35:42.777Z,9.70
2024-05-09T01:38:17.074Z,9.60
2024-05-09T01:40:51.362Z,9.60
2024-05-09T01:43:21.655Z,9.60
2024-05-09T01:45:51.935Z,9.60
2024-05-09T01:48:22.475Z,9.50
2024-05-09T01:50:52.830Z,9.50
2024-05-09T01:53:23.116Z,9.50
2024-05-09T01:55:56.032Z,9.40
2024-05-09T01:58:26.397Z,9.40
2024-05-09T02:00:56.759Z,9.40
2024-05-09T02:03:27.181Z,9.30
2024-05-09T02:05:57.651Z,9.30
2024-05-09T02:08:28.104Z,9.30
2024-05-09T02:11:01.139Z,9.20
2024-05-09T02:13:31.517Z,9.20
2024-05-09T02:16:01.965Z,9.20
2024-05-09T02:18:32.636Z,9.20
2024-05-09T02:21:03.222Z,9.30
2024-05-09T02:23:33.800Z,9.10
2024-05-09T02:26:07.109Z,9.10
2024-05-09T02:28:37.411Z,9.00
2024-05-09T02:31:07.866Z,9.00
2024-05-09T02:33:38.301Z,9.00
2024-05-09T02:36:07.125Z,8.90
2024-05-09T02:38:37.494Z,8.90
2024-05-09T02:41:09.322Z,8.80
2024-05-09T02:43:39.586Z,8.80
2024-05-09T02:46:07.569Z,8.80
2024-05-09T02:48:37.938Z,8.80
2024-05-09T02:51:06.070Z,8.70
2024-05-09T02:53:36.511Z,8.70
2024-05-09T02:56:07.510Z,8.70
2024-05-09T02:58:37.853Z,8.70
2024-05-09T03:01:05.546Z,8.60
2024-05-09T03:03:36.063Z,8.60
2024-05-09T03:06:04.151Z,8.60
2024-05-09T03:08:34.621Z,8.60
2024-05-09T03:11:02.488Z,8.50
2024-05-09T03:13:35.373Z,8.50
2024-05-09T03:16:03.058Z,8.50
2024-05-09T03:18:34.658Z,8.50
2024-05-09T03:21:02.539Z,8.50
2024-05-09T03:23:32.973Z,8.40
2024-05-09T03:26:00.737Z,8.40
2024-05-09T03:28:31.157Z,8.40
2024-05-09T03:31:01.525Z,8.40
2024-05-09T03:33:32.267Z,8.40
2024-05-09T03:36:00.340Z,8.40
2024-05-09T03:38:30.793Z,8.30
2024-05-09T03:41:01.227Z,8.30
2024-05-09T03:43:31.560Z,8.40
2024-05-09T03:46:04.434Z,8.30
2024-05-09T03:48:35.391Z,8.30
2024-05-09T03:51:05.882Z,8.30
2024-05-09T03:53:33.855Z,8.30
2024-05-09T03:56:05.251Z,8.20
2024-05-09T03:58:33.014Z,8.20
2024-05-09T04:01:06.411Z,8.20
2024-05-09T04:03:34.747Z,8.20
2024-05-09T04:06:05.162Z,8.20
2024-05-09T04:08:33.032Z,8.10
2024-05-09T04:11:04.559Z,8.10
2024-05-09T04:13:34.941Z,8.10
2024-05-09T04:16:06.831Z,8.10
2024-05-09T04:18:37.169Z,8.10
2024-05-09T04:21:05.572Z,8.10
2024-05-09T04:23:36.048Z,8.20
2024-05-09T04:26:04.548Z,8.20
2024-05-09T04:28:34.888Z,8.20
2024-05-09T04:31:05.334Z,8.20
2024-05-09T04:33:35.713Z,8.20
2024-05-09T04:36:03.855Z,8.20
2024-05-09T04:38:34.236Z,8.20
2024-05-09T04:41:02.109Z,8.20
2024-05-09T04:43:33.309Z,8.30
2024-05-09T04:46:00.965Z,8.30
2024-05-09T04:48:34.013Z,8.40
2024-05-09T04:51:02.239Z,8.40
2024-05-09T04:53:32.580Z,8.50
2024-05-09T04:56:00.372Z,8.60
2024-05-09T04:58:30.694Z,8.60
2024-05-09T05:00:58.433Z,8.70
2024-05-09T05:03:28.960Z,8.80
2024-05-09T05:05:59.599Z,8.90
2024-05-09T05:08:29.961Z,9.00
2024-05-09T05:10:57.687Z,9.10
2024-05-09T05:13:28.067Z,9.20
2024-05-09T05:15:57.786Z,9.30
2024-05-09T05:18:29.736Z,9.40
2024-05-09T05:21:00.087Z,9.50
2024-05-09T05:23:30.482Z,9.60
2024-05-09T05:25:58.249Z,9.70
2024-05-09T05:28:28.515Z,9.80
2024-05-09T05:30:56.221Z,9.90
2024-05-09T05:33:26.748Z,10.00
2024-05-09T05:35:54.591Z,10.20
2024-05-09T05:38:28.582Z,10.30
2024-05-09T05:40:56.727Z,10.40
2024-05-09T05:43:27.232Z,10.60
2024-05-09T05:45:54.981Z,10.80
2024-05-09T05:48:25.351Z,11.00
2024-05-09T05:50:53.459Z,11.10
2024-05-09T05:53:23.938Z,11.30
2024-05-09T05:55:54.284Z,11.60
2024-05-09T05:58:24.561Z,11.70
2024-05-09T06:00:53.701Z,11.90
2024-05-09T06:03:24.241Z,12.20
2024-05-09T06:05:51.992Z,12.30
2024-05-09T06:08:23.721Z,12.60
2024-05-09T06:10:54.929Z,12.90
2024-05-09T06:13:25.221Z,13.20
2024-05-09T06:15:52.928Z,13.40
2024-05-09T06:18:23.470Z,13.80
2024-05-09T06:20:52.680Z,14.20
2024-05-09T06:23:23.136Z,14.70
2024-05-09T06:25:50.956Z,15.30
2024-05-09T06:28:23.921Z,15.90
2024-05-09T06:30:51.576Z,16.50
2024-05-09T06:33:21.940Z,17.00
2024-05-09T06:35:49.877Z,17.40
2024-05-09T06:38:20.392Z,17.90
2024-05-09T06:40:48.103Z,18.60
2024-05-09T06:43:19.779Z,19.10
2024-05-09T06:45:52.763Z,19.60
2024-05-09T06:48:23.709Z,20.10
2024-05-09T06:50:51.654Z,20.50
2024-05-09T06:53:24.702Z,21.10
2024-05-09T06:55:53.083Z,21.60
2024-05-09T06:58:23.578Z,22.20
2024-05-09T07:00:53.964Z,22.90
2024-05-09T07:03:24.422Z,23.60
2024-05-09T07:05:52.236Z,24.10
2024-05-09T07:08:22.646Z,24.50
2024-05-09T07:10:50.589Z,24.90
2024-05-09T07:13:21.011Z,25.30
2024-05-09T07:15:48.834Z,25.60
2024-05-09T07:18:22.060Z,25.80
2024-05-09T07:20:50.644Z,26.00
2024-05-09T07:23:21.545Z,26.10
2024-05-09T07:25:49.611Z,26.00
2024-05-09T07:28:20.703Z,25.90
2024-05-09T07:30:48.533Z,25.90
2024-05-09T07:33:23.928Z,25.90
2024-05-09T07:35:52.698Z,25.90
2024-05-09T07:38:23.349Z,25.90
2024-05-09T07:40:51.213Z,25.70
2024-05-09T07:43:21.580Z,25.50
2024-05-09T07:45:53.653Z,25.30
2024-05-09T07:50:01.142Z,25.00
2024-05-09T07:53:53.417Z,24.70
2024-05-09T07:56:24.523Z,24.80
2024-05-09T07:58:56.366Z,25.00
2024-05-09T08:01:26.632Z,25.30
2024-05-09T08:04:00.216Z,25.50
2024-05-09T08:06:30.670Z,25.60
2024-05-09T08:09:02.805Z,25.50
2024-05-09T08:11:37.031Z,25.30
2024-05-09T08:14:05.179Z,25.30
2024-05-09T08:16:35.466Z,25.30
2024-05-09T08:19:05.890Z,25.40
2024-05-09T08:21:36.308Z,25.50
2024-05-09T08:24:04.839Z,25.60
2024-05-09T08:26:35.495Z,25.80
2024-05-09T08:29:03.220Z,25.90
2024-05-09T08:31:33.550Z,26.10
2024-05-09T08:34:01.570Z,26.40
2024-05-09T08:36:34.647Z,26.70
2024-05-09T08:39:02.328Z,26.80
2024-05-09T08:41:34.018Z,26.90
2024-05-09T08:44:02.640Z,27.00
2024-05-09T08:46:35.206Z,27.40
2024-05-09T08:49:04.043Z,27.80
2024-05-09T08:51:37.789Z,28.20
2024-05-09T08:54:05.479Z,28.40
2024-05-09T08:56:39.080Z,28.60
2024-05-09T08:59:13.505Z,28.50
2024-05-09T09:01:44.617Z,28.30
2024-05-09T09:04:13.900Z,27.90
2024-05-09T09:06:47.190Z,27.60
2024-05-09T09:09:15.147Z,27.50
2024-05-09T09:11:45.579Z,27.60
2024-05-09T09:14:14.815Z,27.80
2024-05-09T09:16:45.987Z,27.90
2024-05-09T09:19:14.746Z,27.80
2024-05-09T09:21:48.630Z,27.60
2024-05-09T09:24:16.476Z,27.40
2024-05-09T09:26:48.888Z,27.30
2024-05-09T09:29:20.158Z,27.10
2024-05-09T09:32:00.813Z,27.10
2024-05-09T09:34:28.831Z,27.30
2024-05-09T09:37:07.044Z,27.50
2024-05-09T09:39:35.703Z,27.80
2024-05-09T09:42:07.159Z,27.90
2024-05-09T09:44:37.351Z,27.80
2024-05-09T09:47:10.943Z,27.60
2024-05-09T09:49:39.364Z,27.50
2024-05-09T09:52:13.037Z,27.60
2024-05-09T09:54:44.139Z,27.70
2024-05-09T09:57:14.486Z,27.80
2024-05-09T09:59:46.815Z,27.90
2024-05-09T10:02:17.445Z,28.00
2024-05-09T10:04:45.353Z,28.30
2024-05-09T10:07:20.397Z,28.60
2024-05-09T10:09:48.542Z,28.70
2024-05-09T10:12:18.916Z,28.90
2024-05-09T10:14:48.583Z,29.10
2024-05-09T10:17:19.299Z,29.20
2024-05-09T10:19:47.350Z,29.20
2024-05-09T10:22:29.831Z,29.10
2024-05-09T10:25:06.746Z,28.90
2024-05-09T10:27:37.184Z,28.80
2024-05-09T10:30:11.556Z,28.70
2024-05-09T10:32:47.388Z,28.70
2024-05-09T10:35:19.578Z,28.70
2024-05-09T10:37:53.417Z,28.80
2024-05-09T10:40:26.561Z,28.70
2024-05-09T10:43:05.754Z,28.60
2024-05-09T10:45:35.854Z,28.40
2024-05-09T10:48:06.534Z,28.20
2024-05-09T10:50:35.176Z,28.00
2024-05-09T10:53:08.293Z,27.70
2024-05-09T10:55:36.000Z,27.10
2024-05-09T10:58:06.423Z,26.70
2024-05-09T11:00:36.370Z,26.20
2024-05-09T11:03:07.840Z,25.80
2024-05-09T11:05:36.941Z,25.50
2024-05-09T11:08:10.721Z,25.20
2024-05-09T11:10:39.463Z,25.10
2024-05-09T11:13:09.952Z,25.00
2024-05-09T11:15:39.166Z,24.90
2024-05-09T11:18:09.637Z,24.70
2024-05-09T11:20:38.861Z,24.60
2024-05-09T11:23:13.572Z,24.30
2024-05-09T11:25:41.500Z,24.00
2024-05-09T11:28:11.902Z,23.70
2024-05-09T11:30:39.738Z,23.50
2024-05-09T11:33:13.350Z,23.50
2024-05-09T11:35:41.275Z,23.40
2024-05-09T11:38:16.357Z,23.40
2024-05-09T11:40:44.147Z,23.30
2024-05-09T11:43:14.509Z,23.30
2024-05-09T11:45:42.410Z,23.30
2024-05-09T11:48:13.066Z,23.30
2024-05-09T11:50:41.031Z,23.40
2024-05-09T11:53:14.568Z,23.50
2024-05-09T11:55:42.299Z,23.40
2024-05-09T11:58:14.825Z,23.40
2024-05-09T12:00:42.562Z,23.30
2024-05-09T12:03:12.960Z,23.30
2024-05-09T12:05:41.012Z,23.20
2024-05-09T12:08:14.871Z,23.10
2024-05-09T12:10:43.014Z,23.10
2024-05-09T12:13:13.698Z,23.10
2024-05-09T12:15:42.547Z,23.10
2024-05-09T12:18:13.133Z,23.10
2024-05-09T12:20:40.909Z,23.10
2024-05-09T12:23:14.490Z,23.10
2024-05-09T12:25:42.247Z,23.20
2024-05-09T12:28:12.613Z,23.20
2024-05-09T12:30:41.556Z,23.30
2024-05-09T12:33:13.827Z,23.30
2024-05-09T12:35:44.601Z,23.20
2024-05-09T12:38:20.670Z,23.20
2024-05-09T12:40:48.490Z,23.20
2024-05-09T12:43:19.913Z,23.40
2024-05-09T12:45:47.656Z,23.20
2024-05-09T12:48:18.268Z,23.20
2024-05-09T12:50:46.127Z,23.20
2024-05-09T12:53:19.171Z,23.20
2024-05-09T12:55:53.649Z,23.20
2024-05-09T12:58:27.753Z,23.20
2024-05-09T13:00:55.643Z,23.20
2024-05-09T13:03:26.363Z,23.30
2024-05-09T13:05:54.879Z,23.40
2024-05-09T13:08:27.978Z,23.50
2024-05-09T13:10:55.896Z,23.50
2024-05-09T13:13:26.864Z,23.60
2024-05-09T13:15:56.272Z,23.70
2024-05-09T13:18:27.028Z,23.80
2024-05-09T13:20:55.078Z,24.00
2024-05-09T13:23:28.244Z,24.10
2024-05-09T13:25:55.997Z,24.20
2024-05-09T13:28:26.465Z,24.30
2024-05-09T13:30:54.319Z,24.30
2024-05-09T13:33:24.985Z,24.20
2024-05-09T13:35:53.144Z,24.10
2024-05-09T13:38:24.942Z,24.00
2024-05-09T13:40:55.327Z,23.80
2024-05-09T13:43:25.888Z,23.60
2024-05-09T13:45:55.602Z,23.50
2024-05-09T13:48:26.233Z,23.20
2024-05-09T13:50:54.052Z,23.00
2024-05-09T13:53:25.253Z,22.80
2024-05-09T13:55:55.702Z,22.60
2024-05-09T13:58:26.651Z,22.40
2024-05-09T14:00:55.243Z,22.20
2024-05-09T14:03:27.107Z,22.00
2024-05-09T14:05:55.291Z,21.80
2024-05-09T14:08:26.858Z,21.70
2024-05-09T14:10:57.618Z,21.50
2024-05-09T14:13:28.523Z,21.40
2024-05-09T14:15:56.865Z,21.30
2024-05-09T14:18:33.539Z,21.20
2024-05-09T14:21:02.582Z,21.20
2024-05-09T14:23:33.186Z,21.20
2024-05-09T14:26:06.927Z,21.10
2024-05-09T14:28:40.547Z,21.10
2024-05-09T14:31:08.903Z,21.10
2024-05-09T14:33:40.288Z,21.20
2024-05-09T14:36:10.073Z,21.20
2024-05-09T14:38:40.663Z,21.10
2024-05-09T14:41:13.416Z,21.10
2024-05-09T14:43:44.156Z,21.10
2024-05-09T14:46:12.300Z,21.10
2024-05-09T14:48:43.258Z,21.20
2024-05-09T14:51:11.837Z,21.20
2024-05-09T14:53:42.377Z,21.30
2024-05-09T14:56:12.874Z,21.40
2024-05-09T14:58:43.257Z,21.50
2024-05-09T15:01:11.100Z,21.60
2024-05-09T15:03:41.643Z,21.70
2024-05-09T15:06:09.661Z,21.90
2024-05-09T15:08:40.258Z,22.20
2024-05-09T15:11:08.158Z,22.30
2024-05-09T15:13:41.512Z,22.40
2024-05-09T15:16:09.292Z,22.50
2024-05-09T15:18:42.177Z,22.40
2024-05-09T15:21:11.390Z,22.50
2024-05-09T15:23:41.982Z,22.50
2024-05-09T15:26:10.124Z,22.50
2024-05-09T15:28:43.553Z,22.50
2024-05-09T15:31:11.524Z,22.40
2024-05-09T15:33:42.699Z,22.40
2024-05-09T15:36:10.855Z,22.50
2024-05-09T15:38:41.921Z,22.70
2024-05-09T15:41:09.860Z,22.80
2024-05-09T15:43:43.279Z,22.90
2024-05-09T15:46:11.506Z,22.80
2024-05-09T15:48:44.786Z,22.60
2024-05-09T15:51:13.219Z,22.40
2024-05-09T15:53:43.847Z,22.30
2024-05-09T15:56:12.045Z,22.50
2024-05-09T15:58:45.174Z,22.80
2024-05-09T16:01:14.960Z,23.30
2024-05-09T16:03:45.668Z,23.60
2024-05-09T16:06:13.869Z,24.00
2024-05-09T16:08:44.289Z,24.30
2024-05-09T16:11:13.198Z,24.50
2024-05-09T16:13:46.239Z,24.70
2024-05-09T16:16:14.279Z,25.00
2024-05-09T16:18:45.140Z,25.20
2024-05-09T16:21:12.908Z,25.40
2024-05-09T16:23:43.358Z,25.40
2024-05-09T16:26:11.333Z,25.30
2024-05-09T16:28:41.798Z,25.10
2024-05-09T16:31:12.258Z,24.70
2024-05-09T16:33:42.732Z,24.40
2024-05-09T16:36:10.627Z,24.20
2024-05-09T16:38:43.009Z,23.90
2024-05-09T16:41:10.776Z,23.70
2024-05-09T16:43:41.239Z,23.50
2024-05-09T16:46:11.897Z,23.20
2024-05-09T16:48:45.721Z,23.00
2024-05-09T16:51:13.700Z,22.70
2024-05-09T16:53:44.050Z,22.50
2024-05-09T16:56:12.601Z,22.30
2024-05-09T16:58:43.464Z,22.20
2024-05-09T17:01:13.962Z,21.90
2024-05-09T17:03:44.773Z,21.80
2024-05-09T17:06:13.371Z,21.60
2024-05-09T17:08:44.433Z,21.30
2024-05-09T17:11:13.302Z,21.10
2024-05-09T17:13:45.966Z,20.90
2024-05-09T17:16:21.026Z,20.80
2024-05-09T17:18:51.630Z,20.60
2024-05-09T17:21:20.403Z,20.50
2024-05-09T17:23:54.323Z,20.50
2024-05-09T17:26:22.277Z,20.40
2024-05-09T17:28:52.965Z,20.40
2024-05-09T17:31:23.577Z,20.40
2024-05-09T17:33:54.248Z,20.40
2024-05-09T17:36:22.148Z,20.40
2024-05-09T17:38:52.731Z,20.40
2024-05-09T17:41:20.495Z,20.40
2024-05-09T17:43:50.861Z,20.40
2024-05-09T17:46:21.349Z,20.30
2024-05-09T17:48:51.922Z,20.30
2024-05-09T17:51:22.602Z,20.10
2024-05-09T17:53:50.381Z,20.20
2024-05-09T17:56:20.926Z,20.00
2024-05-09T17:58:49.006Z,20.10
2024-05-09T18:01:19.674Z,20.00
2024-05-09T18:03:48.662Z,20.00
2024-05-09T18:06:21.778Z,19.80
2024-05-09T18:08:49.472Z,19.70
2024-05-09T18:11:20.118Z,19.50
2024-05-09T18:13:47.976Z,19.40
2024-05-09T18:16:18.599Z,19.20
2024-05-09T18:18:46.890Z,19.00
2024-05-09T18:21:17.315Z,18.90
2024-05-09T18:23:47.726Z,18.80
2024-05-09T18:26:18.073Z,18.70
2024-05-09T18:28:47.297Z,18.60
2024-05-09T18:31:18.283Z,18.50
2024-05-09T18:33:46.307Z,18.40
2024-05-09T18:36:17.137Z,18.30
2024-05-09T18:38:49.225Z,18.30
2024-05-09T18:41:20.631Z,18.20
2024-05-09T18:43:50.615Z,18.10
2024-05-09T18:46:21.445Z,18.10
2024-05-09T18:48:49.794Z,18.00
2024-05-09T18:51:21.078Z,17.90
2024-05-09T18:53:52.424Z,17.90
2024-05-09T18:56:22.848Z,18.00
2024-05-09T18:58:53.263Z,17.70
2024-05-09T19:01:21.212Z,17.70
2024-05-09T19:03:51.710Z,17.70
2024-05-09T19:06:23.841Z,17.60
2024-05-09T19:08:58.604Z,17.50
2024-05-09T19:11:26.469Z,17.50
2024-05-09T19:13:58.759Z,17.40
2024-05-09T19:16:26.603Z,17.40
2024-05-09T19:18:57.145Z,17.40
2024-05-09T19:21:24.895Z,17.30
2024-05-09T19:23:58.114Z,17.30
2024-05-09T19:26:25.975Z,17.20
2024-05-09T19:28:56.502Z,17.20
2024-05-09T19:31:24.551Z,17.20
2024-05-09T19:33:55.031Z,17.10
2024-05-09T19:36:22.874Z,17.00
2024-05-09T19:38:54.030Z,17.10
2024-05-09T19:41:24.561Z,16.90
2024-05-09T19:43:54.924Z,16.90
2024-05-09T19:46:23.669Z,16.80
2024-05-09T19:48:54.454Z,16.80
2024-05-09T19:51:22.337Z,16.70
2024-05-09T19:53:54.255Z,16.70
2024-05-09T19:56:24.599Z,16.60
2024-05-09T19:58:55.142Z,16.50
2024-05-09T20:01:23.018Z,16.50
2024-05-09T20:03:56.730Z,16.50
2024-05-09T20:06:26.311Z,16.40
2024-05-09T20:08:58.244Z,16.30
2024-05-09T20:11:28.750Z,16.20
2024-05-09T20:13:59.366Z,16.10
2024-05-09T20:16:27.142Z,16.10
2024-05-09T20:18:58.216Z,16.00
2024-05-09T20:21:25.994Z,16.10
2024-05-09T20:23:56.609Z,15.90
2024-05-09T20:26:24.486Z,15.90
2024-05-09T20:28:57.765Z,15.80
2024-05-09T20:31:25.564Z,15.90
2024-05-09T20:33:56.084Z,15.60
2024-05-09T20:36:23.873Z,15.60
2024-05-09T20:38:54.157Z,15.50
2024-05-09T20:41:21.948Z,15.40
2024-05-09T20:43:53.606Z,15.40
2024-05-09T20:46:24.107Z,15.30
2024-05-09T20:48:56.354Z,15.30
2024-05-09T20:51:24.278Z,15.20
2024-05-09T20:53:56.337Z,15.10
2024-05-09T20:56:24.748Z,15.10
2024-05-09T20:58:55.031Z,15.00
2024-05-09T21:01:25.543Z,15.00
2024-05-09T21:03:56.035Z,14.90
2024-05-09T21:06:24.276Z,14.90
2024-05-09T21:08:55.589Z,14.80
2024-05-09T21:11:25.068Z,14.80
2024-05-09T21:13:55.555Z,14.70
2024-05-09T21:16:26.203Z,14.70
2024-05-09T21:18:57.065Z,14.60
2024-05-09T21:21:25.051Z,14.60
2024-05-09T21:23:55.312Z,14.50
2024-05-09T21:26:23.851Z,14.50
2024-05-09T21:28:54.176Z,14.40
2024-05-09T21:31:21.951Z,14.40
2024-05-09T21:33:55.285Z,14.40
2024-05-09T21:36:23.169Z,14.30
2024-05-09T21:38:53.508Z,14.30
2024-05-09T21:41:21.402Z,14.20
2024-05-09T21:43:51.695Z,14.20
2024-05-09T21:46:19.485Z,14.10
2024-05-09T21:48:49.913Z,14.10
2024-05-09T21:51:20.295Z,14.10
2024-05-09T21:53:51.546Z,14.00
2024-05-09T21:56:19.241Z,14.00
2024-05-09T21:58:49.500Z,14.00
2024-05-09T22:01:17.450Z,14.00
2024-05-09T22:03:47.965Z,14.00
2024-05-09T22:06:15.818Z,14.00
2024-05-09T22:08:48.705Z,14.00
2024-05-09T22:11:16.421Z,14.00
2024-05-09T22:13:46.827Z,14.00
2024-05-09T22:16:15.563Z,14.00
2024-05-09T22:18:46.162Z,14.00
2024-05-09T22:21:13.932Z,14.00
2024-05-09T22:23:44.257Z,14.00
2024-05-09T22:26:14.593Z,13.90
2024-05-09T22:28:45.678Z,13.80
2024-05-09T22:31:13.413Z,13.90
2024-05-09T22:33:46.273Z,13.90
2024-05-09T22:36:15.243Z,13.90
2024-05-09T22:38:45.564Z,13.90
2024-05-09T22:41:15.909Z,13.90
2024-05-09T22:43:46.166Z,13.80
2024-05-09T22:46:14.023Z,13.80
2024-05-09T22:48:44.399Z,13.80
2024-05-09T22:51:13.078Z,13.70
2024-05-09T22:53:43.324Z,13.70
2024-05-09T22:56:12.045Z,13.60
2024-05-09T22:58:45.120Z,13.60
2024-05-09T23:01:15.311Z,13.60
2024-05-09T23:03:45.928Z,13.50
2024-05-09T23:06:14.103Z,13.50
2024-05-09T23:08:44.348Z,13.40
2024-05-09T23:11:12.165Z,13.40
2024-05-09T23:13:45.133Z,13.40
2024-05-09T23:16:13.084Z,13.30
2024-05-09T23:18:43.594Z,13.30
2024-05-09T23:21:11.358Z,13.30
2024-05-09T23:23:41.655Z,13.30
2024-05-09T23:26:09.382Z,13.20
2024-05-09T23:28:39.745Z,13.20
2024-05-09T23:31:10.048Z,13.20
2024-05-09T23:33:40.614Z,13.10
2024-05-09T23:36:08.467Z,13.10
2024-05-09T23:38:41.330Z,13.00
2024-05-09T23:41:09.259Z,13.00
2024-05-09T23:43:39.673Z,13.00
2024-05-09T23:46:11.263Z,12.90
2024-05-09T23:48:41.751Z,12.90
2024-05-09T23:51:09.554Z,12.80
2024-05-09T23:53:39.812Z,12.80
2024-05-09T23:56:08.073Z,12.70
2024-05-09T23:58:38.333Z,12.70
